Time;durP1;ratioP1;P1;durP2;ratioP2;P2;SDS_P1;SDS_P2;PMS_P1;PMS_P2;Temp;Humidity;BMP_temperature;BMP_pressure;BME280_temperature;BME280_humidity;BME280_pressure;Samples;Min_cycle;Max_cycle;Signal;HPM_P1;HPM_P2
2023/05/06 00:01:55;;;;;;;;;;;;;;;13.97;nan;100593.63;5040031;28;20392;-88
2023/05/06 00:04:20;;;;;;;;;;;;;;;13.94;nan;100593.13;5038569;28;20231;-88
2023/05/06 00:06:48;;;;;;;;;;;;;;;13.92;nan;100587.16;5039025;28;19921;-89
2023/05/06 00:09:13;;;;;;;;;;;;;;;13.92;nan;100590.66;5036691;28;20261;-88
2023/05/06 00:11:38;;;;;;;;;;;;;;;13.92;nan;100588.00;5037393;28;19971;-88
2023/05/06 00:14:04;;;;;;;;;;;;;;;13.96;nan;100586.63;5032001;28;19921;-88
2023/05/06 00:16:29;;;;;;;;;;;;;;;14.00;nan;100589.78;5021392;28;19947;-89
2023/05/06 00:18:57;;;;;;;;;;;;;;;14.05;nan;100589.28;5050076;28;20411;-89
2023/05/06 00:21:22;;;;;;;;;;;;;;;14.02;nan;100585.97;5038762;28;20503;-88
2023/05/06 00:23:47;;;;;;;;;;;;;;;14.02;nan;100585.97;5037124;28;19928;-89
2023/05/06 00:26:12;;;;;;;;;;;;;;;14.05;nan;100589.28;5055291;28;19927;-88
2023/05/06 00:28:41;;;;;;;;;;;;;;;14.10;nan;100590.41;5038641;28;19931;-89
2023/05/06 00:31:08;;;;;;;;;;;;;;;14.13;nan;100581.25;5035115;28;19935;-88
2023/05/06 00:33:35;;;;;;;;;;;;;;;14.15;nan;100572.09;5039659;28;19917;-88
2023/05/06 00:36:00;;;;;;;;;;;;;;;14.19;nan;100570.75;5038771;28;19960;-88
2023/05/06 00:38:26;;;;;;;;;;;;;;;14.20;nan;100577.72;5056314;28;20015;-89
2023/05/06 00:40:51;;;;;;;;;;;;;;;14.19;nan;100576.06;5032380;28;19921;-89
2023/05/06 00:43:16;;;;;;;;;;;;;;;14.16;nan;100578.28;5033694;28;20018;-89
2023/05/06 00:45:41;;;;;;;;;;;;;;;14.13;nan;100570.63;5037369;28;19938;-89
2023/05/06 00:48:08;;;;;;;;;;;;;;;14.09;nan;100572.81;5034886;28;19967;-88
2023/05/06 00:50:33;;;;;;;;;;;;;;;14.07;nan;100574.81;5040986;28;20004;-89
2023/05/06 00:52:59;;;;;;;;;;;;;;;14.02;nan;100577.97;5047392;28;19947;-88
2023/05/06 00:55:25;;;;;;;;;;;;;;;14.02;nan;100574.50;5039152;28;19916;-89
2023/05/06 00:57:51;;;;;;;;;;;;;;;13.97;nan;100583.00;5038023;28;19917;-87
2023/05/06 01:00:16;;;;;;;;;;;;;;;13.92;nan;100582.69;5028503;28;20416;-89
2023/05/06 01:02:45;;;;;;;;;;;;;;;13.87;nan;100581.53;5038632;28;19925;-89
2023/05/06 01:05:10;;;;;;;;;;;;;;;13.82;nan;100582.03;5037691;28;19921;-88
2023/05/06 01:07:39;;;;;;;;;;;;;;;13.77;nan;100585.22;5038271;28;19993;-88
2023/05/06 01:10:12;;;;;;;;;;;;;;;13.69;nan;100582.59;5037602;28;19929;-88
2023/05/06 01:12:42;;;;;;;;;;;;;;;13.60;nan;100578.28;5037937;28;19916;-87
2023/05/06 01:15:13;;;;;;;;;;;;;;;13.55;nan;100581.47;5037769;28;19917;-88
2023/05/06 01:17:43;;;;;;;;;;;;;;;13.52;nan;100579.16;5020364;28;19920;-89
2023/05/06 01:20:10;;;;;;;;;;;;;;;13.47;nan;100578.84;5037925;28;19925;-89
2023/05/06 01:22:36;;;;;;;;;;;;;;;13.40;nan;100575.19;5047220;28;19932;-87
2023/05/06 01:25:01;;;;;;;;;;;;;;;13.34;nan;100575.84;5034870;28;20000;-88
2023/05/06 01:27:27;;;;;;;;;;;;;;;13.29;nan;100576.34;5037503;28;19917;-89
2023/05/06 01:29:52;;;;;;;;;;;;;;;13.29;nan;100576.34;5036734;28;19933;-89
2023/05/06 01:32:35;;;;;;;;;;;;;;;13.30;nan;100587.81;5038861;28;19948;-88
2023/05/06 01:35:11;;;;;;;;;;;;;;;13.23;nan;100587.63;5040780;28;19968;-88
2023/05/06 01:37:42;;;;;;;;;;;;;;;13.18;nan;100587.31;5041690;28;19921;-89
2023/05/06 01:40:08;;;;;;;;;;;;;;;13.20;nan;100581.81;5040490;28;19921;-89
2023/05/06 01:42:36;;;;;;;;;;;;;;;13.21;nan;100589.63;5038746;28;19917;-88
2023/05/06 01:45:03;;;;;;;;;;;;;;;13.18;nan;100587.31;5039833;28;19944;-89
2023/05/06 01:47:29;;;;;;;;;;;;;;;13.12;nan;100594.09;5041997;28;19984;-90
2023/05/06 01:49:56;;;;;;;;;;;;;;;13.07;nan;100587.66;5040267;28;20336;-88
2023/05/06 01:52:30;;;;;;;;;;;;;;;13.05;nan;100592.28;5034082;28;19928;-88
2023/05/06 01:54:58;;;;;;;;;;;;;;;13.02;nan;100582.00;5062189;28;19959;-89
2023/05/06 01:57:24;;;;;;;;;;;;;;;13.03;nan;100583.66;5041348;28;19925;-89
2023/05/06 01:59:49;;;;;;;;;;;;;;;13.05;nan;100586.97;5043560;28;19927;-88
2023/05/06 02:02:14;;;;;;;;;;;;;;;13.05;nan;100587.81;5032012;28;19943;-88
2023/05/06 02:04:40;;;;;;;;;;;;;;;13.02;nan;100588.16;5034245;28;19917;-88
2023/05/06 02:07:05;;;;;;;;;;;;;;;12.95;nan;100593.28;5043059;28;19929;-88
2023/05/06 02:09:30;;;;;;;;;;;;;;;12.86;nan;100591.63;5043804;28;19936;-87
2023/05/06 02:11:55;;;;;;;;;;;;;;;12.82;nan;100592.09;5041226;28;19940;-90
2023/05/06 02:14:20;;;;;;;;;;;;;;;12.82;nan;100587.63;5048851;28;20594;-86
2023/05/06 02:16:46;;;;;;;;;;;;;;;12.84;nan;100587.47;5026623;28;19932;-88
2023/05/06 02:19:11;;;;;;;;;;;;;;;12.83;nan;100591.13;5036809;28;20296;-87
2023/05/06 02:21:36;;;;;;;;;;;;;;;12.77;nan;100589.13;5032977;28;20015;-88
2023/05/06 02:24:02;;;;;;;;;;;;;;;12.69;nan;100596.06;5033571;28;20636;-88
2023/05/06 02:26:27;;;;;;;;;;;;;;;12.64;nan;100587.78;5033920;28;20463;-88
2023/05/06 02:28:52;;;;;;;;;;;;;;;12.63;nan;100596.75;5033749;28;19921;-87
2023/05/06 02:31:17;;;;;;;;;;;;;;;12.63;nan;100590.59;5031828;28;20208;-88
2023/05/06 02:33:43;;;;;;;;;;;;;;;12.58;nan;100593.72;5031931;28;19933;-88
2023/05/06 02:36:09;;;;;;;;;;;;;;;12.49;nan;100594.75;5026196;28;19927;-88
2023/05/06 02:38:34;;;;;;;;;;;;;;;12.42;nan;100586.59;5034657;28;19921;-87
2023/05/06 02:40:59;;;;;;;;;;;;;;;12.33;nan;100585.72;5033499;28;19917;-87
2023/05/06 02:43:25;;;;;;;;;;;;;;;12.27;nan;100588.19;5032883;28;19986;-87
2023/05/06 02:45:50;;;;;;;;;;;;;;;12.23;nan;100589.53;5033968;28;20003;-87
2023/05/06 02:48:15;;;;;;;;;;;;;;;12.18;nan;100594.44;5032651;28;20011;-87
2023/05/06 02:50:40;;;;;;;;;;;;;;;12.13;nan;100588.81;5030662;28;19960;-87
2023/05/06 02:53:07;;;;;;;;;;;;;;;12.12;nan;100577.38;5031741;28;19921;-88
2023/05/06 02:55:33;;;;;;;;;;;;;;;12.10;nan;100582.00;5032176;28;19917;-88
2023/05/06 02:57:58;;;;;;;;;;;;;;;12.07;nan;100575.22;5051321;28;20419;-88
2023/05/06 03:00:23;;;;;;;;;;;;;;;12.01;nan;100575.88;5034717;28;20245;-86
2023/05/06 03:02:48;;;;;;;;;;;;;;;11.96;nan;100574.66;5052806;28;19917;-88
2023/05/06 03:05:14;;;;;;;;;;;;;;;11.91;nan;100577.78;5031673;28;19925;-88
2023/05/06 03:07:40;;;;;;;;;;;;;;;11.85;nan;100573.13;5040297;28;19924;-87
2023/05/06 03:10:06;;;;;;;;;;;;;;;11.79;nan;100569.25;5033464;28;20463;-87
2023/05/06 03:12:31;;;;;;;;;;;;;;;11.76;nan;100574.88;5033117;28;20004;-88
2023/05/06 03:14:56;;;;;;;;;;;;;;;11.73;nan;100564.63;5033217;28;19924;-88
2023/05/06 03:17:21;;;;;;;;;;;;;;;11.75;nan;100569.72;5049142;28;19927;-88
2023/05/06 03:19:47;;;;;;;;;;;;;;;11.72;nan;100588.59;5033032;28;20380;-88
2023/05/06 03:22:13;;;;;;;;;;;;;;;11.63;nan;100577.97;5031388;28;19932;-87
2023/05/06 03:24:38;;;;;;;;;;;;;;;11.56;nan;100576.94;5047166;28;19920;-87
2023/05/06 03:27:03;;;;;;;;;;;;;;;11.55;nan;100572.63;5032635;28;19925;-87
2023/05/06 03:29:29;;;;;;;;;;;;;;;11.52;nan;100575.59;5031192;28;20384;-87
2023/05/06 03:31:55;;;;;;;;;;;;;;;11.49;nan;100578.56;5030007;28;19929;-88
2023/05/06 03:34:20;;;;;;;;;;;;;;;11.46;nan;100573.56;5031070;28;19921;-87
2023/05/06 03:36:45;;;;;;;;;;;;;;;11.44;nan;100580.81;5028196;28;19920;-87
2023/05/06 03:39:10;;;;;;;;;;;;;;;11.38;nan;100576.16;5029172;28;19967;-86
2023/05/06 03:41:35;;;;;;;;;;;;;;;11.35;nan;100579.13;5049374;28;19932;-87
2023/05/06 03:44:01;;;;;;;;;;;;;;;11.32;nan;100582.06;5031225;28;20427;-87
2023/05/06 03:46:26;;;;;;;;;;;;;;;11.31;nan;100577.78;5028631;28;19932;-88
2023/05/06 03:48:51;;;;;;;;;;;;;;;11.30;nan;100573.44;5026594;28;19928;-87
2023/05/06 03:51:16;;;;;;;;;;;;;;;11.25;nan;100576.59;5047206;28;20363;-86
2023/05/06 03:53:42;;;;;;;;;;;;;;;11.20;nan;100578.84;5048302;28;19931;-86
2023/05/06 03:56:07;;;;;;;;;;;;;;;11.19;nan;100577.19;5030604;28;19921;-88
2023/05/06 03:58:32;;;;;;;;;;;;;;;11.25;nan;100576.59;5031873;28;19945;-87
2023/05/06 04:00:59;;;;;;;;;;;;;;;11.31;nan;100577.78;5030489;28;19921;-87
2023/05/06 04:03:25;;;;;;;;;;;;;;;11.28;nan;100581.56;5024428;28;20269;-87
2023/05/06 04:05:50;;;;;;;;;;;;;;;11.20;nan;100582.34;5030543;28;19928;-86
2023/05/06 04:08:16;;;;;;;;;;;;;;;11.19;nan;100585.13;5045315;28;20343;-86
2023/05/06 04:10:41;;;;;;;;;;;;;;;11.18;nan;100592.25;5032119;28;19940;-87
2023/05/06 04:13:06;;;;;;;;;;;;;;;11.23;nan;100587.31;5030282;28;19924;-87
2023/05/06 04:15:33;;;;;;;;;;;;;;;11.33;nan;100589.88;5049980;28;19925;-87
2023/05/06 04:17:58;;;;;;;;;;;;;;;11.36;nan;100584.25;5028954;28;19921;-86
2023/05/06 04:20:23;;;;;;;;;;;;;;;11.34;nan;100590.69;5025215;28;19929;-87
2023/05/06 04:22:49;;;;;;;;;;;;;;;11.33;nan;100591.69;5027496;28;19925;-87
2023/05/06 04:25:14;;;;;;;;;;;;;;;11.33;nan;100596.97;5031694;28;19928;-87
2023/05/06 04:27:40;;;;;;;;;;;;;;;11.37;nan;100600.97;5029317;28;20376;-87
2023/05/06 04:30:05;;;;;;;;;;;;;;;11.36;nan;100602.78;5030102;28;19924;-86
2023/05/06 04:32:31;;;;;;;;;;;;;;;11.36;nan;100599.31;5043153;28;20145;-87
2023/05/06 04:34:56;;;;;;;;;;;;;;;11.37;nan;100601.81;5042334;28;19929;-87
2023/05/06 04:37:21;;;;;;;;;;;;;;;11.43;nan;100606.47;5031045;28;19952;-87
2023/05/06 04:39:47;;;;;;;;;;;;;;;11.50;nan;100606.69;5030440;28;19932;-87
2023/05/06 04:42:13;;;;;;;;;;;;;;;11.55;nan;100611.50;5051292;28;19920;-87
2023/05/06 04:44:41;;;;;;;;;;;;;;;11.62;nan;100615.19;5015740;28;20311;-87
2023/05/06 04:47:06;;;;;;;;;;;;;;;11.68;nan;100612.75;5031555;28;19920;-87
2023/05/06 04:49:32;;;;;;;;;;;;;;;11.72;nan;100609.78;5018700;28;20288;-87
2023/05/06 04:51:57;;;;;;;;;;;;;;;11.76;nan;100611.97;5023493;28;20468;-87
2023/05/06 04:54:22;;;;;;;;;;;;;;;11.81;nan;100614.97;5025754;28;19983;-87
2023/05/06 04:56:47;;;;;;;;;;;;;;;11.87;nan;100610.91;5028469;28;20289;-87
2023/05/06 04:59:12;;;;;;;;;;;;;;;11.92;nan;100615.72;5031556;28;20000;-88
2023/05/06 05:01:38;;;;;;;;;;;;;;;11.97;nan;100614.28;5030865;28;20516;-87
2023/05/06 05:04:03;;;;;;;;;;;;;;;12.00;nan;100618.41;5028408;28;19950;-87
2023/05/06 05:06:28;;;;;;;;;;;;;;;12.04;nan;100620.59;5023450;28;19928;-87
2023/05/06 05:08:53;;;;;;;;;;;;;;;12.10;nan;100625.25;5030720;28;20368;-87
2023/05/06 05:11:19;;;;;;;;;;;;;;;12.21;nan;100629.44;5039373;28;19925;-87
2023/05/06 05:13:44;;;;;;;;;;;;;;;12.37;nan;100641.94;5028474;28;20273;-87
2023/05/06 05:16:09;;;;;;;;;;;;;;;12.53;nan;100638.50;5027005;28;19920;-87
2023/05/06 05:18:34;;;;;;;;;;;;;;;12.73;nan;100639.03;5046480;28;19921;-87
2023/05/06 05:21:00;;;;;;;;;;;;;;;12.95;nan;100646.38;5028741;28;20020;-88
2023/05/06 05:23:25;;;;;;;;;;;;;;;13.22;nan;100647.03;5024900;28;19916;-87
2023/05/06 05:25:50;;;;;;;;;;;;;;;13.51;nan;100646.53;5040956;28;19916;-88
2023/05/06 05:28:15;;;;;;;;;;;;;;;13.90;nan;100647.66;5029391;28;19955;-87
2023/05/06 05:30:40;;;;;;;;;;;;;;;14.37;nan;100657.44;5031578;28;19928;-87
2023/05/06 05:33:06;;;;;;;;;;;;;;;14.78;nan;100650.13;5030951;28;19923;-88
2023/05/06 05:35:31;;;;;;;;;;;;;;;15.15;nan;100648.50;5031776;28;19964;-87
2023/05/06 05:37:56;;;;;;;;;;;;;;;15.56;nan;100647.31;5026937;28;20016;-88
2023/05/06 05:40:21;;;;;;;;;;;;;;;15.84;nan;100642.25;5049014;28;19964;-88
2023/05/06 05:42:46;;;;;;;;;;;;;;;16.13;nan;100646.72;5030160;28;19913;-88
2023/05/06 05:45:12;;;;;;;;;;;;;;;16.30;nan;100642.88;5030753;28;20276;-89
2023/05/06 05:47:39;;;;;;;;;;;;;;;16.45;nan;100639.34;5040822;28;19921;-88
2023/05/06 05:50:06;;;;;;;;;;;;;;;16.66;nan;100634.03;5022667;28;19921;-88
2023/05/06 05:52:31;;;;;;;;;;;;;;;16.80;nan;100640.34;5024768;28;19924;-88
2023/05/06 05:54:56;;;;;;;;;;;;;;;17.02;nan;100643.03;5028289;28;19928;-88
2023/05/06 05:57:22;;;;;;;;;;;;;;;17.22;nan;100643.22;5027318;28;19917;-89
2023/05/06 05:59:47;;;;;;;;;;;;;;;17.39;nan;100645.41;5027484;28;19982;-88
2023/05/06 06:02:12;;;;;;;;;;;;;;;17.77;nan;100642.41;5029792;28;20000;-87
2023/05/06 06:04:38;;;;;;;;;;;;;;;18.03;nan;100647.09;5030241;28;19921;-89
2023/05/06 06:07:03;;;;;;;;;;;;;;;18.24;nan;100656.06;5029099;28;19920;-88
2023/05/06 06:09:28;;;;;;;;;;;;;;;18.34;nan;100647.66;5026808;28;19952;-89
2023/05/06 06:11:53;;;;;;;;;;;;;;;18.52;nan;100649.78;5030792;28;19975;-89
2023/05/06 06:14:19;;;;;;;;;;;;;;;18.70;nan;100646.56;5029831;28;19927;-88
2023/05/06 06:16:44;;;;;;;;;;;;;;;18.92;nan;100645.38;5028473;28;20144;-88
2023/05/06 06:19:09;;;;;;;;;;;;;;;19.16;nan;100643.16;5028585;28;20285;-88
2023/05/06 06:21:35;;;;;;;;;;;;;;;19.50;nan;100647.50;5034283;28;20430;-88
2023/05/06 06:24:01;;;;;;;;;;;;;;;19.67;nan;100648.69;5033365;28;19921;-88
2023/05/06 06:26:26;;;;;;;;;;;;;;;19.70;nan;100652.84;5032692;28;19921;-88
2023/05/06 06:28:51;;;;;;;;;;;;;;;19.72;nan;100651.59;5034735;28;19921;-87
2023/05/06 06:31:16;;;;;;;;;;;;;;;19.62;nan;100651.19;5034910;28;20280;-87
2023/05/06 06:33:42;;;;;;;;;;;;;;;19.63;nan;100660.88;5033698;28;19981;-88
2023/05/06 06:36:07;;;;;;;;;;;;;;;19.61;nan;100657.56;5040118;28;19978;-88
2023/05/06 06:38:32;;;;;;;;;;;;;;;19.65;nan;100666.03;5047035;28;19932;-89
2023/05/06 06:40:58;;;;;;;;;;;;;;;19.83;nan;100668.94;5033968;28;19917;-88
2023/05/06 06:43:23;;;;;;;;;;;;;;;20.04;nan;100657.09;5032919;28;19932;-89
2023/05/06 06:45:49;;;;;;;;;;;;;;;20.25;nan;100661.38;5035299;28;19921;-88
2023/05/06 06:48:15;;;;;;;;;;;;;;;20.50;nan;100660.69;5024275;28;19986;-89
2023/05/06 06:50:40;;;;;;;;;;;;;;;20.74;nan;100665.31;5012558;28;19924;-88
2023/05/06 06:53:06;;;;;;;;;;;;;;;20.82;nan;100663.41;5048551;28;19927;-87
2023/05/06 06:55:31;;;;;;;;;;;;;;;20.81;nan;100672.50;5036942;28;19927;-86
2023/05/06 06:57:56;;;;;;;;;;;;;;;20.97;nan;100666.63;5035150;28;19925;-85
2023/05/06 07:00:22;;;;;;;;;;;;;;;21.03;nan;100683.78;5034307;28;19932;-87
2023/05/06 07:02:48;;;;;;;;;;;;;;;21.14;nan;100667.75;5052267;28;19932;-87
2023/05/06 07:05:13;;;;;;;;;;;;;;;21.29;nan;100666.63;5035183;28;19927;-86
2023/05/06 07:07:39;;;;;;;;;;;;;;;21.33;nan;100665.97;5028258;28;19921;-88
2023/05/06 07:10:04;;;;;;;;;;;;;;;21.47;nan;100668.56;5017454;28;20006;-87
2023/05/06 07:12:29;;;;;;;;;;;;;;;21.64;nan;100675.00;5014543;28;19921;-88
2023/05/06 07:14:55;;;;;;;;;;;;;;;22.12;nan;100681.56;5014538;28;19917;-87
2023/05/06 07:17:20;;;;;;;;;;;;;;;22.51;nan;100671.44;5031975;28;19924;-87
2023/05/06 07:19:45;;;;;;;;;;;;;;;22.84;nan;100663.69;5014876;28;20323;-87
2023/05/06 07:22:10;;;;;;;;;;;;;;;23.32;nan;100665.47;5015108;28;19918;-87
2023/05/06 07:24:35;;;;;;;;;;;;;;;23.60;nan;100666.69;5009236;28;19963;-87
2023/05/06 07:27:01;;;;;;;;;;;;;;;24.04;nan;100675.22;5031928;28;19921;-87
2023/05/06 07:29:26;;;;;;;;;;;;;;;24.29;nan;100677.66;5014918;28;20004;-88
2023/05/06 07:31:52;;;;;;;;;;;;;;;24.05;nan;100676.06;5014896;28;19924;-87
2023/05/06 07:34:18;;;;;;;;;;;;;;;24.07;nan;100676.63;5013207;28;19932;-87
2023/05/06 07:36:43;;;;;;;;;;;;;;;24.02;nan;100671.94;5032322;28;19917;-87
2023/05/06 07:39:09;;;;;;;;;;;;;;;24.21;nan;100677.22;5013630;28;20020;-88
2023/05/06 07:41:34;;;;;;;;;;;;;;;24.44;nan;100670.94;5026450;28;19924;-87
2023/05/06 07:44:00;;;;;;;;;;;;;;;24.77;nan;100672.94;4996124;28;20056;-88
2023/05/06 07:46:25;;;;;;;;;;;;;;;24.79;nan;100674.34;4994482;28;19918;-87
2023/05/06 07:48:50;;;;;;;;;;;;;;;24.76;nan;100676.69;5023597;28;19917;-88
2023/05/06 07:51:16;;;;;;;;;;;;;;;24.84;nan;100670.91;5017129;28;19979;-86
2023/05/06 07:53:41;;;;;;;;;;;;;;;24.94;nan;100683.78;5016116;28;19986;-87
2023/05/06 07:56:07;;;;;;;;;;;;;;;25.09;nan;100683.22;5031634;28;19940;-87
2023/05/06 07:58:32;;;;;;;;;;;;;;;24.99;nan;100682.00;5014737;28;19924;-87
2023/05/06 08:00:57;;;;;;;;;;;;;;;25.19;nan;100673.44;5014106;28;20391;-87
2023/05/06 08:03:23;;;;;;;;;;;;;;;25.30;nan;100682.53;5017857;28;19924;-87
2023/05/06 08:05:51;;;;;;;;;;;;;;;25.41;nan;100680.84;5016676;28;19932;-86
2023/05/06 08:08:17;;;;;;;;;;;;;;;25.53;nan;100675.31;5033150;28;20269;-86
2023/05/06 08:10:42;;;;;;;;;;;;;;;25.59;nan;100683.25;5015566;28;19921;-86
2023/05/06 08:13:07;;;;;;;;;;;;;;;25.56;nan;100680.25;5012828;28;19921;-85
2023/05/06 08:15:33;;;;;;;;;;;;;;;25.76;nan;100682.41;5026515;28;19928;-87
2023/05/06 08:17:58;;;;;;;;;;;;;;;25.85;nan;100684.44;5012732;28;19921;-85
2023/05/06 08:20:23;;;;;;;;;;;;;;;25.72;nan;100681.28;5032296;28;19921;-86
2023/05/06 08:22:48;;;;;;;;;;;;;;;25.72;nan;100683.97;5030839;28;20438;-85
2023/05/06 08:25:14;;;;;;;;;;;;;;;25.90;nan;100689.16;5014326;28;20008;-85
2023/05/06 08:27:39;;;;;;;;;;;;;;;25.83;nan;100686.59;5009383;28;20497;-85
2023/05/06 08:30:05;;;;;;;;;;;;;;;25.79;nan;100690.03;5016120;28;19929;-86
2023/05/06 08:32:30;;;;;;;;;;;;;;;26.10;nan;100693.22;5029113;28;19990;-86
2023/05/06 08:34:55;;;;;;;;;;;;;;;26.34;nan;100693.78;5037065;28;19928;-87
2023/05/06 08:37:21;;;;;;;;;;;;;;;26.62;nan;100687.38;5009109;28;19922;-87
2023/05/06 08:39:46;;;;;;;;;;;;;;;26.82;nan;100695.72;5085983;22;19931;-88
2023/05/06 08:42:11;;;;;;;;;;;;;;;27.12;nan;100697.09;5015120;28;19941;-88
2023/05/06 08:44:37;;;;;;;;;;;;;;;27.22;nan;100686.38;5024152;28;19925;-89
2023/05/06 08:47:02;;;;;;;;;;;;;;;27.77;nan;100684.31;5006693;28;19929;-89
2023/05/06 08:49:30;;;;;;;;;;;;;;;27.92;nan;100687.13;5013653;28;20000;-87
2023/05/06 08:51:56;;;;;;;;;;;;;;;28.25;nan;100685.13;5024771;28;20015;-89
2023/05/06 08:54:23;;;;;;;;;;;;;;;28.80;nan;100691.03;5020100;28;19925;-89
2023/05/06 08:56:52;;;;;;;;;;;;;;;29.24;nan;100678.84;5015651;28;19961;-88
2023/05/06 08:59:22;;;;;;;;;;;;;;;29.47;nan;100689.19;5040374;28;19928;-88
2023/05/06 09:01:47;;;;;;;;;;;;;;;29.46;nan;100695.69;5026076;28;19956;-88
2023/05/06 09:04:17;;;;;;;;;;;;;;;29.51;nan;100681.25;5066611;23;19925;-87
2023/05/06 09:06:42;;;;;;;;;;;;;;;29.23;nan;100688.91;5091248;23;19952;-84
2023/05/06 09:09:07;;;;;;;;;;;;;;;29.49;nan;100676.09;5049493;28;19924;-81
2023/05/06 09:11:35;;;;;;;;;;;;;;;29.12;nan;100681.81;5036808;28;19925;-82
2023/05/06 09:14:16;;;;;;;;;;;;;;;28.95;nan;100676.63;5051939;28;19925;-83
2023/05/06 09:16:45;;;;;;;;;;;;;;;28.97;nan;100674.44;5075103;28;19931;-79
2023/05/06 09:19:12;;;;;;;;;;;;;;;29.13;nan;100670.69;5053165;28;19921;-83
2023/05/06 09:21:38;;;;;;;;;;;;;;;29.53;nan;100670.91;5069665;28;19939;-82
2023/05/06 09:24:05;;;;;;;;;;;;;;;29.73;nan;100667.38;5037517;28;20055;-82
2023/05/06 09:26:31;;;;;;;;;;;;;;;29.74;nan;100671.72;5049607;28;20401;-82
2023/05/06 09:28:57;;;;;;;;;;;;;;;30.23;nan;100666.38;5075029;28;19925;-84
2023/05/06 09:31:22;;;;;;;;;;;;;;;30.76;nan;100665.81;5073241;28;20283;-84
2023/05/06 09:33:47;;;;;;;;;;;;;;;30.55;nan;100659.66;5060466;28;19928;-81
2023/05/06 09:36:13;;;;;;;;;;;;;;;29.68;nan;100661.94;5026407;28;19928;-84
2023/05/06 09:38:41;;;;;;;;;;;;;;;29.48;nan;100657.28;5049993;28;19920;-83
2023/05/06 09:41:07;;;;;;;;;;;;;;;29.72;nan;100663.00;5045836;28;20452;-84
2023/05/06 09:43:33;;;;;;;;;;;;;;;30.20;nan;100661.47;5033718;28;20023;-88
2023/05/06 09:46:00;;;;;;;;;;;;;;;30.19;nan;100664.47;5034417;28;19964;-87
2023/05/06 09:48:29;;;;;;;;;;;;;;;30.31;nan;100662.25;5049342;28;19999;-87
2023/05/06 09:50:55;;;;;;;;;;;;;;;30.50;nan;100662.44;5051366;28;19925;-85
2023/05/06 09:53:21;;;;;;;;;;;;;;;30.37;nan;100655.69;5063915;28;19920;-86
2023/05/06 09:55:47;;;;;;;;;;;;;;;30.35;nan;100657.06;5057732;28;19976;-87
2023/05/06 09:58:14;;;;;;;;;;;;;;;30.56;nan;100655.03;5066077;28;19925;-84
2023/05/06 10:00:40;;;;;;;;;;;;;;;30.66;nan;100658.50;5048873;28;19925;-85
2023/05/06 10:03:05;;;;;;;;;;;;;;;30.86;nan;100656.78;5028376;28;20454;-85
2023/05/06 10:05:32;;;;;;;;;;;;;;;31.03;nan;100650.91;5027153;28;20038;-84
2023/05/06 10:07:58;;;;;;;;;;;;;;;31.70;nan;100653.84;5038940;28;19966;-85
2023/05/06 10:10:28;;;;;;;;;;;;;;;32.12;nan;100639.41;5041355;28;19925;-82
2023/05/06 10:12:54;;;;;;;;;;;;;;;31.61;nan;100645.47;5050161;28;19925;-84
2023/05/06 10:15:19;;;;;;;;;;;;;;;31.53;nan;100641.47;5049349;28;19936;-82
2023/05/06 10:17:46;;;;;;;;;;;;;;;32.12;nan;100631.22;5052939;28;19918;-82
2023/05/06 10:20:12;;;;;;;;;;;;;;;32.32;nan;100627.41;5053055;28;19921;-84
2023/05/06 10:22:48;;;;;;;;;;;;;;;32.82;nan;100631.59;5130707;23;20322;-87
2023/05/06 10:25:21;;;;;;;;;;;;;;;33.31;nan;100627.50;5068028;22;19929;-84
2023/05/06 10:27:46;;;;;;;;;;;;;;;33.96;nan;100621.03;5004771;28;19909;-84
2023/05/06 10:30:13;;;;;;;;;;;;;;;33.96;nan;100626.53;5001471;28;19952;-84
2023/05/06 10:32:41;;;;;;;;;;;;;;;33.09;nan;100619.97;5001991;28;19917;-83
2023/05/06 10:35:15;;;;;;;;;;;;;;;32.37;nan;100621.84;5021634;28;19925;-85
2023/05/06 10:37:41;;;;;;;;;;;;;;;32.57;nan;100620.75;5003178;28;19940;-86
2023/05/06 10:40:08;;;;;;;;;;;;;;;32.91;nan;100618.84;5143934;23;20560;-81
2023/05/06 10:42:37;;;;;;;;;;;;;;;32.91;nan;100610.63;5209722;23;19926;-91
2023/05/06 10:45:03;;;;;;;;;;;;;;;33.18;nan;100615.38;5018544;28;19925;-88
2023/05/06 10:47:48;;;;;;;;;;;;;;;32.97;nan;100606.72;5020101;28;20005;-86
2023/05/06 10:50:21;;;;;;;;;;;;;;;33.10;nan;100603.19;5021463;28;19941;-84
2023/05/06 10:52:47;;;;;;;;;;;;;;;33.47;nan;100598.69;5026811;28;19936;-88
2023/05/06 10:55:28;;;;;;;;;;;;;;;33.34;nan;100592.06;5036136;28;19956;-87
2023/05/06 10:58:02;;;;;;;;;;;;;;;33.71;nan;100594.97;5032838;28;20479;-85
2023/05/06 11:00:31;;;;;;;;;;;;;;;34.04;nan;100592.91;5034783;28;19959;-87
2023/05/06 11:03:00;;;;;;;;;;;;;;;33.55;nan;100588.94;5030903;28;19921;-88
2023/05/06 11:05:27;;;;;;;;;;;;;;;33.71;nan;100584.00;5025445;28;19976;-88
2023/05/06 11:08:05;;;;;;;;;;;;;;;34.40;nan;100587.44;5026410;28;19932;-85
2023/05/06 11:10:31;;;;;;;;;;;;;;;35.19;nan;100591.56;5019680;28;20007;-86
2023/05/06 11:12:57;;;;;;;;;;;;;;;35.95;nan;100582.28;5017784;28;19929;-84
2023/05/06 11:15:38;;;;;;;;;;;;;;;36.20;nan;100586.19;5020568;28;20486;-86
2023/05/06 11:18:23;;;;;;;;;;;;;;;35.71;nan;100588.22;5013945;28;20297;-87
2023/05/06 11:21:11;;;;;;;;;;;;;;;35.98;nan;100581.63;5025812;28;19925;-84
2023/05/06 11:24:06;;;;;;;;;;;;;;;36.20;nan;100577.13;4969802;28;19925;-84
2023/05/06 11:26:31;;;;;;;;;;;;;;;35.88;nan;100580.00;5010111;28;19921;-84
2023/05/06 11:29:01;;;;;;;;;;;;;;;36.19;nan;100584.59;5017158;28;19927;-89
2023/05/06 11:31:28;;;;;;;;;;;;;;;36.07;nan;100570.63;5031646;28;19925;-85
2023/05/06 11:33:56;;;;;;;;;;;;;;;36.60;nan;100579.75;5030704;28;19928;-86
2023/05/06 11:36:22;;;;;;;;;;;;;;;36.95;nan;100577.72;5028621;28;20356;-87
2023/05/06 11:38:51;;;;;;;;;;;;;;;37.07;nan;100577.88;5015074;28;19921;-87
2023/05/06 11:41:17;;;;;;;;;;;;;;;36.33;nan;100581.69;5027154;28;19917;-87
2023/05/06 11:43:46;;;;;;;;;;;;;;;35.78;nan;100573.97;5025518;28;19935;-87
2023/05/06 11:46:11;;;;;;;;;;;;;;;36.68;nan;100578.91;5021149;28;19925;-85
2023/05/06 11:48:37;;;;;;;;;;;;;;;36.77;nan;100572.25;5029324;28;20004;-87
2023/05/06 11:51:02;;;;;;;;;;;;;;;36.63;nan;100573.56;5038806;28;20004;-86
2023/05/06 11:53:28;;;;;;;;;;;;;;;36.32;nan;100566.28;5018954;28;19964;-85
2023/05/06 11:55:54;;;;;;;;;;;;;;;36.09;nan;100571.97;5018951;28;19953;-86
2023/05/06 11:58:22;;;;;;;;;;;;;;;36.31;nan;100570.19;5034887;23;19935;-86
2023/05/06 12:00:51;;;;;;;;;;;;;;;35.69;nan;100565.72;5007345;28;19924;-86
2023/05/06 12:03:17;;;;;;;;;;;;;;;34.46;nan;100569.69;5016838;28;19922;-87
2023/05/06 12:05:43;;;;;;;;;;;;;;;33.16;nan;100573.81;5025563;28;20296;-86
2023/05/06 12:08:09;;;;;;;;;;;;;;;32.68;nan;100565.81;5027865;28;19921;-88
2023/05/06 12:10:35;;;;;;;;;;;;;;;31.22;nan;100558.13;5012651;28;19928;-86
2023/05/06 12:13:00;;;;;;;;;;;;;;;29.90;nan;100560.72;5009456;28;20557;-86
2023/05/06 12:15:25;;;;;;;;;;;;;;;28.93;nan;100551.66;5007021;28;19918;-87
2023/05/06 12:17:51;;;;;;;;;;;;;;;28.69;nan;100554.13;5021373;28;19929;-85
2023/05/06 12:20:17;;;;;;;;;;;;;;;28.79;nan;100556.84;5027632;28;20369;-87
2023/05/06 12:22:42;;;;;;;;;;;;;;;28.98;nan;100559.84;5029163;28;19928;-87
2023/05/06 12:25:14;;;;;;;;;;;;;;;29.00;nan;100554.09;5011070;28;19921;-85
2023/05/06 12:27:39;;;;;;;;;;;;;;;29.27;nan;100556.56;5012034;28;19917;-85
2023/05/06 12:30:07;;;;;;;;;;;;;;;28.97;nan;100551.94;5008456;28;20347;-86
2023/05/06 12:32:33;;;;;;;;;;;;;;;29.01;nan;100550.31;5015558;28;20389;-88
2023/05/06 12:34:59;;;;;;;;;;;;;;;28.76;nan;100543.78;5025739;28;19921;-88
2023/05/06 12:37:28;;;;;;;;;;;;;;;28.60;nan;100553.03;5033146;28;19932;-87
2023/05/06 12:39:54;;;;;;;;;;;;;;;28.17;nan;100547.78;5026719;28;19917;-89
2023/05/06 12:42:20;;;;;;;;;;;;;;;27.68;nan;100548.13;5028959;28;20004;-88
2023/05/06 12:44:45;;;;;;;;;;;;;;;27.19;nan;100547.56;5037165;28;19952;-88
2023/05/06 12:47:21;;;;;;;;;;;;;;;27.25;nan;100547.38;5041147;28;19917;-89
2023/05/06 12:49:47;;;;;;;;;;;;;;;27.47;nan;100549.13;5031033;28;19922;-87
2023/05/06 12:52:13;;;;;;;;;;;;;;;27.50;nan;100540.44;5036701;28;19917;-88
2023/05/06 12:54:41;;;;;;;;;;;;;;;27.62;nan;100541.03;5021851;28;19977;-87